sensor_id;sensor_type;location;lat;lon;timestamp;temperature;humidity
30467;DHT22;17258;52.560;13.046;2023-04-06T00:01:16;7.30;49.60
30467;DHT22;17258;52.560;13.046;2023-04-06T00:11:16;7.20;49.60
30467;DHT22;17258;52.560;13.046;2023-04-06T00:21:17;7.10;49.70
30467;DHT22;17258;52.560;13.046;2023-04-06T00:31:18;7.00;49.70
30467;DHT22;17258;52.560;13.046;2023-04-06T00:41:18;6.90;49.70
30467;DHT22;17258;52.560;13.046;2023-04-06T00:51:20;6.70;49.80
30467;DHT22;17258;52.560;13.046;2023-04-06T01:01:21;6.60;49.90
30467;DHT22;17258;52.560;13.046;2023-04-06T01:11:23;6.50;50.00
30467;DHT22;17258;52.560;13.046;2023-04-06T01:21:24;6.30;49.90
30467;DHT22;17258;52.560;13.046;2023-04-06T01:31:25;6.20;50.00
30467;DHT22;17258;52.560;13.046;2023-04-06T01:41:26;6.10;50.00
30467;DHT22;17258;52.560;13.046;2023-04-06T01:51:27;6.00;50.10
30467;DHT22;17258;52.560;13.046;2023-04-06T02:01:27;5.90;50.10
30467;DHT22;17258;52.560;13.046;2023-04-06T02:11:28;5.80;50.20
30467;DHT22;17258;52.560;13.046;2023-04-06T02:21:29;5.60;50.20
30467;DHT22;17258;52.560;13.046;2023-04-06T02:31:30;5.60;50.30
30467;DHT22;17258;52.560;13.046;2023-04-06T02:41:30;5.50;50.30
30467;DHT22;17258;52.560;13.046;2023-04-06T02:51:31;5.40;50.40
30467;DHT22;17258;52.560;13.046;2023-04-06T03:01:31;5.30;50.40
30467;DHT22;17258;52.560;13.046;2023-04-06T03:11:32;5.20;50.40
30467;DHT22;17258;52.560;13.046;2023-04-06T03:21:33;5.10;50.50
30467;DHT22;17258;52.560;13.046;2023-04-06T03:31:33;5.00;50.50
30467;DHT22;17258;52.560;13.046;2023-04-06T03:41:34;5.00;50.60
30467;DHT22;17258;52.560;13.046;2023-04-06T03:51:35;4.90;50.60
30467;DHT22;17258;52.560;13.046;2023-04-06T04:01:36;4.80;50.60
30467;DHT22;17258;52.560;13.046;2023-04-06T04:11:36;4.70;50.60
30467;DHT22;17258;52.560;13.046;2023-04-06T04:21:43;4.70;50.70
30467;DHT22;17258;52.560;13.046;2023-04-06T04:31:45;4.60;50.80
30467;DHT22;17258;52.560;13.046;2023-04-06T04:41:45;4.60;50.80
30467;DHT22;17258;52.560;13.046;2023-04-06T04:51:46;4.50;50.80
30467;DHT22;17258;52.560;13.046;2023-04-06T05:01:47;4.40;50.90
30467;DHT22;17258;52.560;13.046;2023-04-06T05:11:47;4.40;50.90
30467;DHT22;17258;52.560;13.046;2023-04-06T05:21:48;4.30;51.00
30467;DHT22;17258;52.560;13.046;2023-04-06T05:31:49;4.30;51.20
30467;DHT22;17258;52.560;13.046;2023-04-06T05:41:51;4.30;51.30
30467;DHT22;17258;52.560;13.046;2023-04-06T05:51:51;4.40;51.50
30467;DHT22;17258;52.560;13.046;2023-04-06T06:01:52;4.50;51.70
30467;DHT22;17258;52.560;13.046;2023-04-06T06:11:52;4.70;52.30
30467;DHT22;17258;52.560;13.046;2023-04-06T06:21:53;5.00;52.90
30467;DHT22;17258;52.560;13.046;2023-04-06T06:31:54;5.40;53.10
30467;DHT22;17258;52.560;13.046;2023-04-06T06:41:54;5.90;53.10
30467;DHT22;17258;52.560;13.046;2023-04-06T06:51:55;6.30;53.20
30467;DHT22;17258;52.560;13.046;2023-04-06T07:01:56;6.70;53.20
30467;DHT22;17258;52.560;13.046;2023-04-06T07:11:56;7.20;53.30
30467;DHT22;17258;52.560;13.046;2023-04-06T07:21:57;7.60;53.30
30467;DHT22;17258;52.560;13.046;2023-04-06T07:31:58;8.10;53.30
30467;DHT22;17258;52.560;13.046;2023-04-06T07:41:58;8.60;53.40
30467;DHT22;17258;52.560;13.046;2023-04-06T07:51:59;9.10;53.50
30467;DHT22;17258;52.560;13.046;2023-04-06T08:02:00;9.70;53.50
30467;DHT22;17258;52.560;13.046;2023-04-06T08:12:01;10.20;53.30
30467;DHT22;17258;52.560;13.046;2023-04-06T08:22:02;10.80;53.10
30467;DHT22;17258;52.560;13.046;2023-04-06T08:32:02;11.50;52.80
30467;DHT22;17258;52.560;13.046;2023-04-06T08:42:12;12.10;52.40
30467;DHT22;17258;52.560;13.046;2023-04-06T08:52:19;12.60;52.10
30467;DHT22;17258;52.560;13.046;2023-04-06T09:02:20;13.10;51.30
30467;DHT22;17258;52.560;13.046;2023-04-06T09:12:26;13.50;50.80
30467;DHT22;17258;52.560;13.046;2023-04-06T09:22:38;13.80;50.00
30467;DHT22;17258;52.560;13.046;2023-04-06T09:42:50;14.20;48.90
30467;DHT22;17258;52.560;13.046;2023-04-06T09:52:54;14.40;49.00
30467;DHT22;17258;52.560;13.046;2023-04-06T10:13:58;14.80;48.00
30467;DHT22;17258;52.560;13.046;2023-04-06T10:24:00;15.10;48.20
30467;DHT22;17258;52.560;13.046;2023-04-06T10:34:02;15.40;48.00
30467;DHT22;17258;52.560;13.046;2023-04-06T10:44:04;15.50;47.60
30467;DHT22;17258;52.560;13.046;2023-04-06T10:54:06;15.70;47.50
30467;DHT22;17258;52.560;13.046;2023-04-06T11:04:07;15.70;47.00
30467;DHT22;17258;52.560;13.046;2023-04-06T11:14:10;15.90;47.10
30467;DHT22;17258;52.560;13.046;2023-04-06T11:24:12;16.10;46.90
30467;DHT22;17258;52.560;13.046;2023-04-06T11:34:16;16.30;46.90
30467;DHT22;17258;52.560;13.046;2023-04-06T11:54:38;16.90;45.50
30467;DHT22;17258;52.560;13.046;2023-04-06T12:04:39;17.00;45.50
30467;DHT22;17258;52.560;13.046;2023-04-06T12:14:40;17.10;45.50
30467;DHT22;17258;52.560;13.046;2023-04-06T12:24:40;17.20;45.90
30467;DHT22;17258;52.560;13.046;2023-04-06T12:34:41;17.60;45.90
30467;DHT22;17258;52.560;13.046;2023-04-06T12:44:42;17.90;45.40
30467;DHT22;17258;52.560;13.046;2023-04-06T12:54:43;18.20;45.10
30467;DHT22;17258;52.560;13.046;2023-04-06T13:04:43;18.40;44.80
30467;DHT22;17258;52.560;13.046;2023-04-06T13:14:44;18.70;44.80
30467;DHT22;17258;52.560;13.046;2023-04-06T13:24:47;18.90;44.30
30467;DHT22;17258;52.560;13.046;2023-04-06T13:34:48;19.10;44.00
30467;DHT22;17258;52.560;13.046;2023-04-06T13:44:49;19.20;43.70
30467;DHT22;17258;52.560;13.046;2023-04-06T13:54:51;19.30;43.50
30467;DHT22;17258;52.560;13.046;2023-04-06T14:04:53;19.40;43.40
30467;DHT22;17258;52.560;13.046;2023-04-06T14:14:54;19.40;42.80
30467;DHT22;17258;52.560;13.046;2023-04-06T14:24:54;19.40;42.40
30467;DHT22;17258;52.560;13.046;2023-04-06T14:34:56;19.30;42.50
30467;DHT22;17258;52.560;13.046;2023-04-06T14:44:57;19.20;42.50
30467;DHT22;17258;52.560;13.046;2023-04-06T14:54:57;19.10;42.10
30467;DHT22;17258;52.560;13.046;2023-04-06T15:04:58;18.90;41.90
30467;DHT22;17258;52.560;13.046;2023-04-06T15:14:58;18.70;42.20
30467;DHT22;17258;52.560;13.046;2023-04-06T15:25:01;18.70;42.10
30467;DHT22;17258;52.560;13.046;2023-04-06T15:35:09;18.70;42.20
30467;DHT22;17258;52.560;13.046;2023-04-06T15:45:10;18.70;41.50
30467;DHT22;17258;52.560;13.046;2023-04-06T15:55:11;18.80;42.00
30467;DHT22;17258;52.560;13.046;2023-04-06T16:05:12;18.80;41.60
30467;DHT22;17258;52.560;13.046;2023-04-06T16:15:13;18.60;41.50
30467;DHT22;17258;52.560;13.046;2023-04-06T16:25:13;18.50;41.30
30467;DHT22;17258;52.560;13.046;2023-04-06T16:35:14;18.40;41.50
30467;DHT22;17258;52.560;13.046;2023-04-06T16:45:15;18.20;42.00
30467;DHT22;17258;52.560;13.046;2023-04-06T16:55:16;18.10;41.20
30467;DHT22;17258;52.560;13.046;2023-04-06T17:05:17;17.90;41.00
30467;DHT22;17258;52.560;13.046;2023-04-06T17:15:23;17.60;41.00
30467;DHT22;17258;52.560;13.046;2023-04-06T17:25:25;17.30;41.00
30467;DHT22;17258;52.560;13.046;2023-04-06T17:35:26;16.90;41.10
30467;DHT22;17258;52.560;13.046;2023-04-06T17:45:26;16.60;41.40
30467;DHT22;17258;52.560;13.046;2023-04-06T17:55:27;16.20;41.60
30467;DHT22;17258;52.560;13.046;2023-04-06T18:05:28;16.00;41.90
30467;DHT22;17258;52.560;13.046;2023-04-06T18:15:28;15.70;41.80
30467;DHT22;17258;52.560;13.046;2023-04-06T18:25:30;15.30;42.00
30467;DHT22;17258;52.560;13.046;2023-04-06T18:35:31;14.90;42.10
30467;DHT22;17258;52.560;13.046;2023-04-06T18:45:34;14.60;42.30
30467;DHT22;17258;52.560;13.046;2023-04-06T18:55:37;14.20;42.40
30467;DHT22;17258;52.560;13.046;2023-04-06T19:05:41;13.80;42.50
30467;DHT22;17258;52.560;13.046;2023-04-06T19:15:42;13.50;42.70
30467;DHT22;17258;52.560;13.046;2023-04-06T19:25:43;13.10;42.80
30467;DHT22;17258;52.560;13.046;2023-04-06T19:35:43;12.80;42.90
30467;DHT22;17258;52.560;13.046;2023-04-06T19:45:44;12.50;43.00
30467;DHT22;17258;52.560;13.046;2023-04-06T19:55:45;12.20;43.10
30467;DHT22;17258;52.560;13.046;2023-04-06T20:05:46;11.90;43.20
30467;DHT22;17258;52.560;13.046;2023-04-06T20:15:47;11.50;43.40
30467;DHT22;17258;52.560;13.046;2023-04-06T20:25:48;11.30;43.50
30467;DHT22;17258;52.560;13.046;2023-04-06T20:35:59;11.10;43.70
30467;DHT22;17258;52.560;13.046;2023-04-06T20:46:00;10.80;43.80
30467;DHT22;17258;52.560;13.046;2023-04-06T20:56:01;10.60;43.80
30467;DHT22;17258;52.560;13.046;2023-04-06T21:06:02;10.40;44.00
30467;DHT22;17258;52.560;13.046;2023-04-06T21:16:03;10.20;44.20
30467;DHT22;17258;52.560;13.046;2023-04-06T21:26:04;10.00;44.30
30467;DHT22;17258;52.560;13.046;2023-04-06T21:36:06;9.80;44.30
30467;DHT22;17258;52.560;13.046;2023-04-06T21:46:07;9.60;44.40
30467;DHT22;17258;52.560;13.046;2023-04-06T21:56:07;9.50;44.60
30467;DHT22;17258;52.560;13.046;2023-04-06T22:06:08;9.30;44.70
30467;DHT22;17258;52.560;13.046;2023-04-06T22:16:09;9.10;44.80
30467;DHT22;17258;52.560;13.046;2023-04-06T22:26:10;8.90;44.80
30467;DHT22;17258;52.560;13.046;2023-04-06T22:36:11;8.70;44.80
30467;DHT22;17258;52.560;13.046;2023-04-06T22:46:12;8.60;44.90
30467;DHT22;17258;52.560;13.046;2023-04-06T22:56:12;8.40;45.10
30467;DHT22;17258;52.560;13.046;2023-04-06T23:06:13;8.20;45.10
30467;DHT22;17258;52.560;13.046;2023-04-06T23:16:15;8.10;45.20
30467;DHT22;17258;52.560;13.046;2023-04-06T23:26:15;8.00;45.30
30467;DHT22;17258;52.560;13.046;2023-04-06T23:36:16;7.80;45.30
30467;DHT22;17258;52.560;13.046;2023-04-06T23:46:17;7.70;45.50
30467;DHT22;17258;52.560;13.046;2023-04-06T23:56:18;7.50;45.60
